This is the latest recevied weather packets stored in our database for station/object AA3CS-1. If no packets are shown the sender has not sent any weather packets the latest 10 day(s).
| Time | Temp. | Humidity | Pressure | Rain* | Wind** | Luminosity | Snow |
|---|---|---|---|---|---|---|---|
| 1777769716 | 3.89° C | 73% | 1017.2 hPa | 0 mm | - | 0 W/m² | - |
| 1777767016 | 4.44° C | 64% | 1017 hPa | 0 mm | - | 5 W/m² | - |
| 1777764316 | 5° C | 60% | 1016.9 hPa | 0 mm | - | 37 W/m² | - |
| 1777764016 | 5° C | 61% | 1016.9 hPa | 0 mm | - | 36 W/m² | - |
| 1777763416 | 5° C | 61% | 1017 hPa | 0 mm | - | 33 W/m² | - |
| 1777760416 | 5° C | 60% | 1016.9 hPa | 0 mm | - | 75 W/m² | - |
| 1777760116 | 5° C | 60% | 1017 hPa | 0 mm | - | 58 W/m² | - |
| 1777756817 | 5.56° C | 53% | 1016.7 hPa | 0 mm | - | 149 W/m² | - |
| 1777756517 | 6.11° C | 54% | 1016.7 hPa | 0 mm | - | 153 W/m² | - |
| 1777756237 | 6.11° C | 54% | 1016.8 hPa | 0 mm | - | 188 W/m² | - |
| 1777755618 | 6.11° C | 55% | 1016.6 hPa | 0 mm | - | 235 W/m² | - |
| 1777754737 | 5.56° C | 56% | 1016.7 hPa | 0 mm | - | 176 W/m² | - |
| 1777754118 | 5.56° C | 56% | 1016.7 hPa | 0 mm | - | 242 W/m² | - |
| 1777753217 | 5.56° C | 59% | 1016.8 hPa | 0 mm | - | 181 W/m² | - |
| 1777752017 | 5.56° C | 62% | 1016.8 hPa | 0 mm | - | 276 W/m² | - |
| 1777750517 | 5° C | 62% | 1017 hPa | 0 mm | - | 125 W/m² | - |
| 1777750237 | 5° C | 60% | 1017 hPa | 0 mm | - | 131 W/m² | - |
| 1777749917 | 5° C | 61% | 1017.1 hPa | 0 mm | - | 146 W/m² | - |
| 1777749617 | 5° C | 62% | 1017.1 hPa | 0 mm | - | 163 W/m² | - |
| 1777747217 | 4.44° C | 65% | 1017.3 hPa | 0 mm | - | 145 W/m² | - |
| 1777746317 | 4.44° C | 68% | 1017.3 hPa | 0 mm | - | 130 W/m² | - |
| 1777743017 | 5° C | 74% | 1017.6 hPa | 0 mm | - | 269 W/m² | - |
| 1777742117 | 5° C | 77% | 1017.6 hPa | 0 mm | - | 312 W/m² | - |
| 1777740337 | 4.44° C | 78% | 1017.7 hPa | 0 mm | - | 460 W/m² | - |
| 1777738517 | 3.89° C | 83% | 1017.7 hPa | 0.25 mm | - | 324 W/m² | - |
* Rain latest hour (hover to see other rain measurements)
** Current wind speed in m/s (hover to see current wind gust speed)